Flight Track Log - Related Links

Times and Time Zones

All times are in EDT time to prevent confusion due to time zone crossing. See the N738HV flight status page for this flight to view local times or setup timezone preferences in your user account.

Time Position Orientation Groundspeed Altitude Reporting Facility
EDT Latitude Longitude Course Direction KTS MPH feet Rate Location/Type
Wed 10:24:12 PM 27.4000 -82.5667 360° North 73 84 400  Level Tampa TRACON
Wed 10:25:00 PM 27.4167 -82.5667 360° North 71 82 1,000 611 Climbing Tampa TRACON
Wed 10:26:00 PM 27.4333 -82.5667 360° North 70 81 1,500 474 Climbing Tampa TRACON
Wed 10:26:54 PM 27.4500 -82.5833 318° Northwest 79 91 1,900 421 Climbing Tampa TRACON
Wed 10:27:54 PM 27.4833 -82.5667 24° Northeast 86 99 2,300 400 Climbing Tampa TRACON
Wed 10:28:54 PM 27.4833 -82.5500 90° East 71 82 2,700 397 Climbing Tampa TRACON
Wed 10:29:55 PM 27.5000 -82.5333 42° Northeast 71 82 3,100 446 Climbing Tampa TRACON
Wed 10:30:55 PM 27.5333 -82.5167 24° Northeast 81 93 3,600 432 Climbing Tampa TRACON
Wed 10:32:00 PM 27.5500 -82.5000 42° Northeast 85 98 4,000 384 Climbing Tampa TRACON
Wed 10:33:00 PM 27.5667 -82.5000 360° North 88 101 4,400 397 Climbing Tampa TRACON
Wed 10:34:01 PM 27.5833 -82.4833 42° Northeast 89 102 4,800 298 Climbing Tampa TRACON
Wed 10:35:01 PM 27.6167 -82.4667 24° Northeast 94 108 5,000 150 Climbing Tampa TRACON
Wed 10:36:01 PM 27.6333 -82.4333 61° Northeast 100 115 5,100  Climbing Tampa TRACON
Wed 10:37:01 PM 27.6500 -82.4167 42° Northeast 96 110 5,000  Descending Tampa TRACON
Wed 10:38:01 PM 27.6833 -82.4000 24° Northeast 96 110 5,100  Climbing Tampa TRACON
Wed 10:38:55 PM 27.7000 -82.3833 42° Northeast 98 113 5,000 -105 Descending Tampa TRACON
Wed 10:39:55 PM 27.7167 -82.3667 42° Northeast 101 116 4,900 -50 Descending Tampa TRACON
Wed 10:40:55 PM 27.7500 -82.3500 24° Northeast 99 114 4,900  Level Tampa TRACON
Wed 10:41:55 PM 27.7667 -82.3333 42° Northeast 98 113 4,900  Level Tampa TRACON
Wed 10:42:55 PM 27.7833 -82.3167 41° Northeast 98 113 4,900 50 Level Tampa TRACON
Wed 10:43:55 PM 27.8167 -82.3000 24° Northeast 98 113 5,000 50 Climbing Tampa TRACON
Wed 10:44:55 PM 27.8333 -82.2833 41° Northeast 100 115 5,000 -50 Level Tampa TRACON
Wed 10:45:55 PM 27.8500 -82.2667 41° Northeast 105 121 4,900 -50 Descending Tampa TRACON
Wed 10:46:55 PM 27.8667 -82.2333 61° Northeast 98 113 4,900  Level Tampa TRACON
Wed 10:47:55 PM 27.9000 -82.2333 360° North 87 100 4,900 50 Level Tampa TRACON
Wed 10:48:55 PM 27.9167 -82.2167 41° Northeast 90 104 5,000 52 Climbing Tampa TRACON
Wed 10:49:50 PM 27.9333 -82.2000 41° Northeast 92 106 5,000  Level Tampa TRACON
Wed 10:50:50 PM 27.9667 -82.1833 24° Northeast 100 115 5,000  Level Tampa TRACON
Wed 10:51:50 PM 27.9833 -82.1667 41° Northeast 100 115 5,000 -48 Level Tampa TRACON
Wed 10:52:56 PM 28.0000 -82.1333 60° Northeast 106 122 4,900 -48 Descending Tampa TRACON
Wed 10:53:56 PM 28.0333 -82.1167 24° Northeast 103 119 4,900  Level Tampa TRACON
Wed 10:55:02 PM 28.0500 -82.1000 41° Northeast 96 110 4,900  Level Tampa TRACON
Wed 10:56:55 PM 28.1000 -82.0667 30° Northeast 99 114 4,900 34 Level Orlando TRACON
Wed 10:58:01 PM 28.1167 -82.0500 41° Northeast 103 119 5,000 48 Climbing Orlando TRACON
Wed 10:59:01 PM 28.1500 -82.0167 41° Northeast 107 123 5,000  Level Orlando TRACON
Wed 10:59:55 PM 28.1667 -82.0000 41° Northeast 107 123 5,000 -53 Level Orlando TRACON
Wed 11:00:55 PM 28.1833 -81.9833 41° Northeast 106 122 4,900  Descending Orlando TRACON
Wed 11:01:55 PM 28.2167 -81.9667 24° Northeast 108 124 5,000 50 Climbing Orlando TRACON
Wed 11:02:55 PM 28.2333 -81.9500 41° Northeast 104 120 5,000 -50 Level Orlando TRACON
Wed 11:03:55 PM 28.2667 -81.9333 24° Northeast 106 122 4,900 -50 Descending Orlando TRACON
Wed 11:04:55 PM 28.2833 -81.9000 60° Northeast 107 123 4,900 50 Level Orlando TRACON
Wed 11:05:55 PM 28.3000 -81.8667 60° Northeast 107 123 5,000 50 Climbing Orlando TRACON
Wed 11:06:55 PM 28.3167 -81.8500 41° Northeast 107 123 5,000  Level Orlando TRACON
Wed 11:08:01 PM 28.3167 -81.8167 90° East 109 125 5,000  Level Orlando TRACON
Wed 11:09:01 PM 28.3333 -81.7833 60° Northeast 108 124 5,000  Level Orlando TRACON
Wed 11:09:55 PM 28.3500 -81.7500 60° Northeast 106 122 5,000  Level Orlando TRACON
Wed 11:10:55 PM 28.3667 -81.7333 41° Northeast 103 119 5,000  Level Orlando TRACON
Wed 11:11:56 PM 28.4000 -81.7167 24° Northeast 104 120 5,000 -47 Level Orlando TRACON
Wed 11:13:02 PM 28.4167 -81.7000 41° Northeast 105 121 4,900 -50 Descending Orlando TRACON
Wed 11:13:56 PM 28.4500 -81.6833 24° Northeast 102 117 4,900  Level Orlando TRACON
Wed 11:14:56 PM 28.4667 -81.6667 41° Northeast 101 116 4,900 50 Level Orlando TRACON
Wed 11:15:56 PM 28.5000 -81.6667 360° North 97 112 5,000 100 Climbing Orlando TRACON
Wed 11:16:56 PM 28.5167 -81.6500 41° Northeast 101 116 5,100  Climbing Orlando TRACON
Wed 11:17:56 PM 28.5500 -81.6333 24° Northeast 105 121 5,000 -50 Descending Orlando TRACON
Wed 11:18:56 PM 28.5667 -81.6167 41° Northeast 106 122 5,000 -48 Level Orlando TRACON
Wed 11:20:02 PM 28.6000 -81.6000 24° Northeast 106 122 4,900 -50 Descending Orlando TRACON
Wed 11:20:56 PM 28.6167 -81.5667 60° Northeast 103 119 4,900 53 Level Orlando TRACON
Wed 11:21:56 PM 28.6333 -81.5500 41° Northeast 100 115 5,000 50 Climbing Orlando TRACON
Wed 11:22:56 PM 28.6667 -81.5500 360° North 108 124 5,000  Level Orlando TRACON
Wed 11:23:56 PM 28.7000 -81.5500 360° North 108 124 5,000  Level Orlando TRACON
Wed 11:24:50 PM 28.7167 -81.5333 41° Northeast 107 123 5,000 -53 Level Orlando TRACON
Wed 11:25:50 PM 28.7500 -81.5333 360° North 105 121 4,900 -200 Descending Orlando TRACON
Wed 11:26:50 PM 28.7667 -81.5000 60° Northeast 110 127 4,600 -350 Descending Orlando TRACON
Wed 11:27:50 PM 28.7833 -81.4833 41° Northeast 108 124 4,200 -291 Descending Orlando TRACON
Wed 11:29:35 PM 28.8178 -81.4375 49° Northeast 107 123 3,800 -217 Descending Jacksonville Center
Wed 11:30:36 PM 28.8300 -81.4042 67° East 110 127 3,600 -198 Descending Jacksonville Center
Wed 11:31:36 PM 28.8464 -81.3781 54° Northeast 108 124 3,400 -236 Descending Jacksonville Center
Wed 11:32:43 PM 28.8669 -81.3444 55° Northeast 106 122 3,100 -188 Descending Jacksonville Center
Wed 11:33:44 PM 28.8853 -81.3181 52° Northeast 106 122 3,000  Descending Jacksonville Center
Wed 11:34:44 PM 28.9039 -81.2989 42° Northeast 96 110 3,100  Climbing Jacksonville Center
Wed 11:35:45 PM 28.9267 -81.2769 40° Northeast 113 130 3,000 -49 Descending Jacksonville Center
Wed 11:36:46 PM 28.9450 -81.2506 52° Northeast 105 121 3,000 -149 Level Jacksonville Center
Wed 11:37:46 PM 28.9611 -81.2172 61° Northeast 115 132 2,700 -298 Descending Jacksonville Center
Wed 11:38:47 PM 28.9817 -81.1931 46° Northeast 119 137 2,400 -298 Descending Jacksonville Center
Wed 11:39:47 PM 29.0022 -81.1642 51° Northeast 113 130 2,100 -300 Descending Jacksonville Center
Wed 11:41:00 PM 29.0247 -81.1340 60° Northeast  Level FlightAware Approximate
Wed 11:48:00 PM 29.0667 -81.0333 65° Northeast  Level FlightAware Approximate
Wed 11:49:00 PM 29.0802 -81.0466 65° Northeast  Level Estimated
Wed 11:50:00 PM 29.0802 -81.0466 65° Northeast  Level Estimated

Login

Don't have an account? Register now (free) for customized features, flight alerts, and more!